createdAt,value
2023-03-20T00:01:58.558Z,8.99
2023-03-20T00:04:26.209Z,8.95
2023-03-20T00:06:52.869Z,8.97
2023-03-20T00:09:19.485Z,8.99
2023-03-20T00:11:53.840Z,8.97
2023-03-20T00:14:24.380Z,8.97
2023-03-20T00:16:51.802Z,8.94
2023-03-20T00:19:23.274Z,8.91
2023-03-20T00:21:51.391Z,8.90
2023-03-20T00:24:18.504Z,8.88
2023-03-20T00:26:46.823Z,8.87
2023-03-20T00:29:21.722Z,8.89
2023-03-20T00:31:48.937Z,8.87
2023-03-20T00:34:17.904Z,8.86
2023-03-20T00:36:44.424Z,8.84
2023-03-20T00:39:11.211Z,8.84
2023-03-20T00:41:54.984Z,8.83
2023-03-20T00:44:27.200Z,8.81
2023-03-20T00:46:57.005Z,8.79
2023-03-20T00:49:28.110Z,8.77
2023-03-20T00:51:55.533Z,8.77
2023-03-20T00:54:22.133Z,8.79
2023-03-20T00:57:27.057Z,8.81
2023-03-20T00:59:59.487Z,8.81
2023-03-20T01:02:29.888Z,8.81
2023-03-20T01:04:57.282Z,8.79
2023-03-20T01:07:24.113Z,8.78
2023-03-20T01:09:50.695Z,8.78
2023-03-20T01:12:17.537Z,8.78
2023-03-20T01:14:44.358Z,8.77
2023-03-20T01:17:18.541Z,8.73
2023-03-20T01:19:45.157Z,8.72
2023-03-20T01:22:14.121Z,8.70
2023-03-20T01:24:40.849Z,8.69
2023-03-20T01:27:19.129Z,8.66
2023-03-20T01:29:46.759Z,8.64
2023-03-20T01:32:17.031Z,8.65
2023-03-20T01:34:44.427Z,8.65
2023-03-20T01:37:37.188Z,8.66
2023-03-20T01:40:04.282Z,8.68
2023-03-20T01:42:32.181Z,8.69
2023-03-20T01:44:58.720Z,8.69
2023-03-20T01:47:26.223Z,8.69
2023-03-20T01:50:14.071Z,8.71
2023-03-20T01:52:40.701Z,8.73
2023-03-20T01:55:07.822Z,8.74
2023-03-20T01:57:34.616Z,8.76
2023-03-20T02:00:10.260Z,8.78
2023-03-20T02:02:38.171Z,8.78
2023-03-20T02:05:10.705Z,8.79
2023-03-20T02:07:38.323Z,8.80
2023-03-20T02:10:09.661Z,8.80
2023-03-20T02:12:38.017Z,8.79
2023-03-20T02:15:07.746Z,8.80
2023-03-20T02:17:34.596Z,8.80
2023-03-20T02:20:20.256Z,8.78
2023-03-20T02:23:25.315Z,8.77
2023-03-20T02:26:12.387Z,8.75
2023-03-20T02:28:54.270Z,8.74
2023-03-20T02:31:23.535Z,8.73
2023-03-20T02:34:05.091Z,8.76
2023-03-20T02:37:06.992Z,8.73
2023-03-20T02:39:39.344Z,8.71
2023-03-20T02:42:31.897Z,8.69
2023-03-20T02:45:21.456Z,8.70
2023-03-20T02:48:03.023Z,8.69
2023-03-20T02:50:38.813Z,8.65
2023-03-20T02:53:26.482Z,8.63
2023-03-20T02:56:03.528Z,8.59
2023-03-20T02:58:45.466Z,8.54
2023-03-20T03:01:18.101Z,8.51
2023-03-20T03:03:50.652Z,8.45
2023-03-20T03:06:26.154Z,8.39
2023-03-20T03:09:02.270Z,8.32
2023-03-20T03:11:30.583Z,8.30
2023-03-20T03:13:59.075Z,8.24
2023-03-20T03:16:37.034Z,8.20
2023-03-20T03:19:13.206Z,8.17
2023-03-20T03:21:41.532Z,8.10
2023-03-20T03:24:39.728Z,8.05
2023-03-20T03:27:19.865Z,8.01
2023-03-20T03:29:54.049Z,7.99
2023-03-20T03:32:33.392Z,7.91
2023-03-20T03:35:01.586Z,7.89
2023-03-20T03:37:28.151Z,7.87
2023-03-20T03:40:11.885Z,7.85
2023-03-20T03:43:00.560Z,7.78
2023-03-20T03:46:17.280Z,7.74
2023-03-20T03:48:48.932Z,7.72
2023-03-20T03:51:20.233Z,7.73
2023-03-20T03:53:53.946Z,7.71
2023-03-20T03:56:26.180Z,7.68
2023-03-20T03:58:57.847Z,7.63
2023-03-20T04:01:27.943Z,7.55
2023-03-20T04:03:59.017Z,7.48
2023-03-20T04:06:26.895Z,7.43
2023-03-20T04:08:53.637Z,7.31
2023-03-20T04:11:24.277Z,7.23
2023-03-20T04:13:52.504Z,7.17
2023-03-20T04:16:21.270Z,7.16
2023-03-20T04:18:48.172Z,7.15
2023-03-20T04:21:16.360Z,7.10
2023-03-20T04:23:43.850Z,6.98
2023-03-20T04:26:10.518Z,6.84
2023-03-20T04:28:37.244Z,6.80
2023-03-20T04:31:04.418Z,6.74
2023-03-20T04:33:31.226Z,6.68
2023-03-20T04:35:57.951Z,6.58
2023-03-20T04:38:24.686Z,6.51
2023-03-20T04:40:51.545Z,6.40
2023-03-20T04:43:18.734Z,6.25
2023-03-20T04:45:45.455Z,6.12
2023-03-20T04:48:12.005Z,5.99
2023-03-20T04:50:38.865Z,5.90
2023-03-20T04:53:05.914Z,5.84
2023-03-20T04:55:32.457Z,5.77
2023-03-20T04:57:59.052Z,5.74
2023-03-20T05:00:25.869Z,5.69
2023-03-20T05:02:52.441Z,5.55
2023-03-20T05:05:19.167Z,5.52
2023-03-20T05:07:46.022Z,5.42
2023-03-20T05:10:12.548Z,5.35
2023-03-20T05:12:39.178Z,5.33
2023-03-20T05:15:06.157Z,5.33
2023-03-20T05:17:32.740Z,5.36
2023-03-20T05:20:00.086Z,5.38
2023-03-20T05:22:26.738Z,5.42
2023-03-20T05:24:53.516Z,5.50
2023-03-20T05:27:20.181Z,5.56
2023-03-20T05:29:46.720Z,5.54
2023-03-20T05:32:13.284Z,5.48
2023-03-20T05:34:41.462Z,5.46
2023-03-20T05:37:08.045Z,5.43
2023-03-20T05:39:34.599Z,5.38
2023-03-20T05:42:01.491Z,5.34
2023-03-20T05:44:28.115Z,5.30
2023-03-20T05:46:54.670Z,5.30
2023-03-20T05:49:23.580Z,5.35
2023-03-20T05:51:50.219Z,5.43
2023-03-20T05:54:17.011Z,5.48
2023-03-20T05:56:43.665Z,5.57
2023-03-20T05:59:11.850Z,5.62
2023-03-20T06:01:38.412Z,5.68
2023-03-20T06:04:05.098Z,5.76
2023-03-20T06:06:31.811Z,5.83
2023-03-20T06:08:58.386Z,5.91
2023-03-20T06:11:25.020Z,5.99
2023-03-20T06:13:54.583Z,6.03
2023-03-20T06:16:21.639Z,6.10
2023-03-20T06:18:49.205Z,6.15
2023-03-20T06:21:15.757Z,6.23
2023-03-20T06:23:42.329Z,6.36
2023-03-20T06:26:08.960Z,6.46
2023-03-20T06:28:35.823Z,6.53
2023-03-20T06:31:02.382Z,6.63
2023-03-20T06:33:31.075Z,6.77
2023-03-20T06:35:57.830Z,6.90
2023-03-20T06:38:24.491Z,7.02
2023-03-20T06:40:51.107Z,7.17
2023-03-20T06:43:17.636Z,7.34
2023-03-20T06:45:44.149Z,7.50
2023-03-20T06:48:11.323Z,7.66
2023-03-20T06:50:37.869Z,7.82
2023-03-20T06:53:04.416Z,7.99
2023-03-20T06:55:31.532Z,8.16
2023-03-20T06:57:58.106Z,8.33
2023-03-20T07:00:24.962Z,8.50
2023-03-20T07:02:51.658Z,8.69
2023-03-20T07:05:18.439Z,8.88
2023-03-20T07:07:45.076Z,9.13
2023-03-20T07:10:12.515Z,9.40
2023-03-20T07:12:39.921Z,9.64
2023-03-20T07:15:07.262Z,9.88
2023-03-20T07:17:33.885Z,10.09
2023-03-20T07:20:00.613Z,10.30
2023-03-20T07:22:29.675Z,10.53
2023-03-20T07:24:57.057Z,10.73
2023-03-20T07:27:23.671Z,10.93
2023-03-20T07:29:50.222Z,11.07
2023-03-20T07:32:17.106Z,11.23
2023-03-20T07:34:44.392Z,11.40
2023-03-20T07:37:11.439Z,11.58
2023-03-20T07:39:38.000Z,11.74
2023-03-20T07:42:04.927Z,11.88
2023-03-20T07:44:31.511Z,12.04
2023-03-20T07:46:58.072Z,12.22
2023-03-20T07:49:24.708Z,12.35
2023-03-20T07:51:51.614Z,12.48
2023-03-20T07:54:18.410Z,12.60
2023-03-20T07:56:45.256Z,12.75
2023-03-20T07:59:12.950Z,12.90
2023-03-20T08:01:39.596Z,13.03
2023-03-20T08:04:06.362Z,13.18
2023-03-20T08:06:33.031Z,13.32
2023-03-20T08:08:59.780Z,13.46
2023-03-20T08:11:26.586Z,13.60
2023-03-20T08:13:53.172Z,13.74
2023-03-20T08:16:19.780Z,13.90
2023-03-20T08:18:46.408Z,14.07
2023-03-20T08:21:12.997Z,14.26
2023-03-20T08:23:39.591Z,14.38
2023-03-20T08:26:07.146Z,14.51
2023-03-20T08:28:46.571Z,14.66
2023-03-20T08:31:15.016Z,14.82
2023-03-20T08:33:41.647Z,14.97
2023-03-20T08:36:08.903Z,15.12
2023-03-20T08:38:35.952Z,15.25
2023-03-20T08:41:02.652Z,15.38
2023-03-20T08:43:29.453Z,15.51
2023-03-20T08:45:56.192Z,15.63
2023-03-20T08:48:23.109Z,15.77
2023-03-20T08:50:50.019Z,15.87
2023-03-20T08:53:16.802Z,16.00
2023-03-20T08:55:51.241Z,16.13
2023-03-20T08:58:18.214Z,16.25
2023-03-20T09:00:45.553Z,16.35
2023-03-20T09:03:17.589Z,16.41
2023-03-20T09:05:46.514Z,16.55
2023-03-20T09:08:13.799Z,16.63
2023-03-20T09:10:40.893Z,16.70
2023-03-20T09:13:25.645Z,16.77
2023-03-20T09:15:53.809Z,16.85
2023-03-20T09:18:21.079Z,16.97
2023-03-20T09:20:48.489Z,17.04
2023-03-20T09:23:15.302Z,17.06
2023-03-20T09:25:41.885Z,17.17
2023-03-20T09:28:08.424Z,17.26
2023-03-20T09:30:35.451Z,17.39
2023-03-20T09:33:02.242Z,17.52
2023-03-20T09:35:28.884Z,17.61
2023-03-20T09:37:56.598Z,17.62
2023-03-20T09:40:32.724Z,17.64
2023-03-20T09:43:17.570Z,17.69
2023-03-20T09:46:22.224Z,17.81
2023-03-20T09:48:57.745Z,17.90
2023-03-20T09:51:38.294Z,18.03
2023-03-20T09:54:18.623Z,18.12
2023-03-20T09:56:45.845Z,18.28
2023-03-20T09:59:16.420Z,18.40
2023-03-20T10:01:50.898Z,18.54
2023-03-20T10:04:17.767Z,18.70
2023-03-20T10:06:44.440Z,18.83
2023-03-20T10:09:18.716Z,18.94
2023-03-20T10:11:51.142Z,19.05
2023-03-20T10:14:41.852Z,19.10
2023-03-20T10:17:14.673Z,19.15
2023-03-20T10:19:50.966Z,19.24
2023-03-20T10:22:27.236Z,19.35
2023-03-20T10:25:18.318Z,19.51
2023-03-20T10:27:57.986Z,19.59
2023-03-20T10:30:38.965Z,19.70
2023-03-20T10:33:33.107Z,19.80
2023-03-20T10:36:02.716Z,19.88
2023-03-20T10:38:56.899Z,20.09
2023-03-20T10:41:31.497Z,20.25
2023-03-20T10:44:00.179Z,20.34
2023-03-20T10:46:43.316Z,20.25
2023-03-20T10:49:18.800Z,20.23
2023-03-20T10:51:52.888Z,20.35
2023-03-20T10:54:33.896Z,20.43
2023-03-20T10:57:03.756Z,20.44
2023-03-20T10:59:40.411Z,20.51
2023-03-20T11:02:12.372Z,20.56
2023-03-20T11:04:39.871Z,20.51
2023-03-20T11:07:25.468Z,20.43
2023-03-20T11:10:04.602Z,20.21
2023-03-20T11:12:43.534Z,20.25
2023-03-20T11:15:32.836Z,20.24
2023-03-20T11:18:04.901Z,20.26
2023-03-20T11:20:38.848Z,20.25
2023-03-20T11:23:08.411Z,20.10
2023-03-20T11:25:40.749Z,20.06
2023-03-20T11:28:32.150Z,20.07
2023-03-20T11:31:06.642Z,20.03
2023-03-20T11:33:44.216Z,20.06
2023-03-20T11:36:25.305Z,20.21
2023-03-20T11:38:58.596Z,20.46
2023-03-20T11:41:27.749Z,20.68
2023-03-20T11:43:54.977Z,20.86
2023-03-20T11:46:23.707Z,21.03
2023-03-20T11:49:24.876Z,21.03
2023-03-20T11:51:52.710Z,21.00
2023-03-20T11:54:23.445Z,21.11
2023-03-20T11:57:00.966Z,21.32
2023-03-20T11:59:34.114Z,21.49
2023-03-20T12:02:17.088Z,21.65
2023-03-20T12:04:45.776Z,21.86
2023-03-20T12:07:33.528Z,22.03
2023-03-20T12:10:04.827Z,22.20
2023-03-20T12:12:50.266Z,22.31
2023-03-20T12:15:30.827Z,22.40
2023-03-20T12:17:59.360Z,22.60
2023-03-20T12:20:44.126Z,22.75
2023-03-20T12:23:11.188Z,22.91
2023-03-20T12:26:08.960Z,23.12
2023-03-20T12:28:41.485Z,23.31
2023-03-20T12:31:16.846Z,23.36
2023-03-20T12:34:05.863Z,23.32
2023-03-20T12:36:36.030Z,23.25
2023-03-20T12:39:05.192Z,23.24
2023-03-20T12:41:46.604Z,23.23
2023-03-20T12:44:38.323Z,23.11
2023-03-20T12:47:26.870Z,22.96
2023-03-20T12:49:59.384Z,22.86
2023-03-20T12:52:45.324Z,22.81
2023-03-20T12:55:18.071Z,22.74
2023-03-20T12:57:57.601Z,22.65
2023-03-20T13:00:45.176Z,22.47
2023-03-20T13:03:23.274Z,22.44
2023-03-20T13:05:57.801Z,22.49
2023-03-20T13:08:43.040Z,22.63
2023-03-20T13:11:37.319Z,22.79
2023-03-20T13:14:28.690Z,22.95
2023-03-20T13:17:11.602Z,23.14
2023-03-20T13:20:10.933Z,23.29
2023-03-20T13:22:58.465Z,23.56
2023-03-20T13:25:43.407Z,23.72
2023-03-20T13:28:23.102Z,23.82
2023-03-20T13:30:59.314Z,24.06
2023-03-20T13:33:43.655Z,24.11
2023-03-20T13:36:22.157Z,24.10
2023-03-20T13:38:57.857Z,24.00
2023-03-20T13:41:26.489Z,24.04
2023-03-20T13:44:01.064Z,24.31
2023-03-20T13:46:41.583Z,24.42
2023-03-20T13:49:43.311Z,24.35
2023-03-20T13:52:20.957Z,24.34
2023-03-20T13:55:24.991Z,24.21
2023-03-20T13:58:19.946Z,24.04
2023-03-20T14:00:50.064Z,23.95
2023-03-20T14:03:25.509Z,23.94
2023-03-20T14:05:52.641Z,23.95
2023-03-20T14:08:28.208Z,23.85
2023-03-20T14:11:05.246Z,23.78
2023-03-20T14:13:34.593Z,23.62
2023-03-20T14:16:08.593Z,23.49
2023-03-20T14:18:36.312Z,23.45
2023-03-20T14:21:11.700Z,23.18
2023-03-20T14:23:42.945Z,23.06
2023-03-20T14:26:19.465Z,22.94
2023-03-20T14:28:59.899Z,22.86
2023-03-20T14:31:42.060Z,22.90
2023-03-20T14:34:11.896Z,22.87
2023-03-20T14:36:47.727Z,22.58
2023-03-20T14:39:32.772Z,22.33
2023-03-20T14:42:05.447Z,22.12
2023-03-20T14:44:39.577Z,21.80
2023-03-20T14:47:43.209Z,21.63
2023-03-20T14:50:15.390Z,21.95
2023-03-20T14:52:53.855Z,22.33
2023-03-20T14:55:20.534Z,22.71
2023-03-20T14:57:56.032Z,22.96
2023-03-20T15:00:25.945Z,23.17
2023-03-20T15:03:14.279Z,23.55
2023-03-20T15:05:42.228Z,23.86
2023-03-20T15:08:34.921Z,23.58
2023-03-20T15:11:10.423Z,23.27
2023-03-20T15:13:38.035Z,22.92
2023-03-20T15:16:07.401Z,22.76
2023-03-20T15:18:41.977Z,22.66
2023-03-20T15:21:17.140Z,22.32
2023-03-20T15:23:45.611Z,22.03
2023-03-20T15:26:15.432Z,21.79
2023-03-20T15:28:43.449Z,21.50
2023-03-20T15:31:21.668Z,21.03
2023-03-20T15:33:48.556Z,20.91
2023-03-20T15:36:18.820Z,21.06
2023-03-20T15:38:46.909Z,21.11
2023-03-20T15:41:32.107Z,21.05
2023-03-20T15:44:06.344Z,21.00
2023-03-20T15:46:32.904Z,21.04
2023-03-20T15:49:00.332Z,21.33
2023-03-20T15:51:28.173Z,21.45
2023-03-20T15:53:54.964Z,21.48
2023-03-20T15:56:26.525Z,21.71
2023-03-20T15:58:55.711Z,22.03
2023-03-20T16:01:26.330Z,22.34
2023-03-20T16:03:58.164Z,22.23
2023-03-20T16:06:25.621Z,22.17
2023-03-20T16:09:07.282Z,22.32
2023-03-20T16:11:42.503Z,22.47
2023-03-20T16:14:27.667Z,22.48
2023-03-20T16:16:57.345Z,22.53
2023-03-20T16:19:26.303Z,22.57
2023-03-20T16:22:19.263Z,22.18
2023-03-20T16:24:48.342Z,21.73
2023-03-20T16:27:29.839Z,21.10
2023-03-20T16:29:57.062Z,20.55
2023-03-20T16:32:45.614Z,20.10
2023-03-20T16:35:21.995Z,19.67
2023-03-20T16:37:54.914Z,19.43
2023-03-20T16:40:36.364Z,19.19
2023-03-20T16:43:23.897Z,18.92
2023-03-20T16:45:54.080Z,18.71
2023-03-20T16:48:31.538Z,18.46
2023-03-20T16:51:02.205Z,18.20
2023-03-20T16:53:37.082Z,18.05
2023-03-20T16:56:05.143Z,17.78
2023-03-20T16:58:34.049Z,17.58
2023-03-20T17:01:06.275Z,17.43
2023-03-20T17:03:44.637Z,17.27
2023-03-20T17:06:21.111Z,17.15
2023-03-20T17:09:13.121Z,17.00
2023-03-20T17:11:44.655Z,16.89
2023-03-20T17:14:11.262Z,16.78
2023-03-20T17:16:40.345Z,16.67
2023-03-20T17:19:18.118Z,16.51
2023-03-20T17:21:46.360Z,16.38
2023-03-20T17:24:14.978Z,16.25
2023-03-20T17:26:44.187Z,16.12
2023-03-20T17:29:12.273Z,16.05
2023-03-20T17:31:39.435Z,16.00
2023-03-20T17:34:06.307Z,15.78
2023-03-20T17:36:34.915Z,15.59
2023-03-20T17:39:02.124Z,15.48
2023-03-20T17:41:29.168Z,15.38
2023-03-20T17:43:58.832Z,15.23
2023-03-20T17:46:28.224Z,15.13
2023-03-20T17:49:26.830Z,14.93
2023-03-20T17:51:54.305Z,14.72
2023-03-20T17:54:21.488Z,14.50
2023-03-20T17:56:48.147Z,14.30
2023-03-20T17:59:15.356Z,14.21
2023-03-20T18:01:42.563Z,14.12
2023-03-20T18:04:09.413Z,14.10
2023-03-20T18:06:37.022Z,13.97
2023-03-20T18:09:04.979Z,13.87
2023-03-20T18:11:31.820Z,13.81
2023-03-20T18:13:59.844Z,13.53
2023-03-20T18:16:27.459Z,13.50
2023-03-20T18:18:54.717Z,13.39
2023-03-20T18:21:21.420Z,13.37
2023-03-20T18:23:48.032Z,13.35
2023-03-20T18:26:22.342Z,13.28
2023-03-20T18:28:50.272Z,13.12
2023-03-20T18:31:19.168Z,12.95
2023-03-20T18:33:50.171Z,12.85
2023-03-20T18:36:19.410Z,12.74
2023-03-20T18:38:46.419Z,12.70
2023-03-20T18:41:13.501Z,12.58
2023-03-20T18:43:40.812Z,12.57
2023-03-20T18:46:11.843Z,12.49
2023-03-20T18:48:38.377Z,12.41
2023-03-20T18:51:05.139Z,12.39
2023-03-20T18:53:31.737Z,12.26
2023-03-20T18:55:58.398Z,12.20
2023-03-20T18:58:28.560Z,12.11
2023-03-20T19:00:57.292Z,12.02
2023-03-20T19:03:24.603Z,11.90
2023-03-20T19:05:52.916Z,11.90
2023-03-20T19:08:20.164Z,11.83
2023-03-20T19:10:47.051Z,11.85
2023-03-20T19:13:16.882Z,11.75
2023-03-20T19:15:44.839Z,11.72
2023-03-20T19:18:20.480Z,11.71
2023-03-20T19:20:51.913Z,11.71
2023-03-20T19:23:20.539Z,11.60
2023-03-20T19:25:49.830Z,11.55
2023-03-20T19:28:21.799Z,11.59
2023-03-20T19:30:50.364Z,11.52
2023-03-20T19:33:17.049Z,11.50
2023-03-20T19:36:01.675Z,11.52
2023-03-20T19:38:28.939Z,11.55
2023-03-20T19:40:55.683Z,11.57
2023-03-20T19:43:23.177Z,11.68
2023-03-20T19:45:54.980Z,11.69
2023-03-20T19:48:43.306Z,11.61
2023-03-20T19:51:26.556Z,11.60
2023-03-20T19:53:54.134Z,11.54
2023-03-20T19:56:22.678Z,11.51
2023-03-20T19:58:50.036Z,11.47
2023-03-20T20:01:20.102Z,11.44
2023-03-20T20:03:48.148Z,11.41
2023-03-20T20:06:15.938Z,11.41
2023-03-20T20:08:48.416Z,11.35
2023-03-20T20:11:17.649Z,11.33
2023-03-20T20:16:31.300Z,11.22
2023-03-20T20:18:57.920Z,11.13
2023-03-20T20:24:11.076Z,10.96
2023-03-20T20:26:41.160Z,10.97
2023-03-20T20:29:14.452Z,10.93
2023-03-20T20:31:41.144Z,10.84
2023-03-20T20:35:07.381Z,10.72
2023-03-20T20:39:41.186Z,10.81
2023-03-20T20:42:07.757Z,10.84
2023-03-20T20:44:34.758Z,10.86
2023-03-20T20:47:01.354Z,10.90
2023-03-20T20:49:27.920Z,10.91
2023-03-20T20:51:54.618Z,10.92
2023-03-20T20:54:21.386Z,10.88
2023-03-20T20:56:47.949Z,10.92
2023-03-20T20:59:14.599Z,10.95
2023-03-20T21:01:41.285Z,10.95
2023-03-20T21:04:08.064Z,10.95
2023-03-20T21:07:03.837Z,10.93
2023-03-20T21:09:21.325Z,10.85
2023-03-20T21:11:48.694Z,10.77
2023-03-20T21:14:15.416Z,10.66
2023-03-20T21:16:41.968Z,10.63
2023-03-20T21:19:08.619Z,10.56
2023-03-20T21:21:35.709Z,10.51
2023-03-20T21:24:02.751Z,10.49
2023-03-20T21:26:29.428Z,10.51
2023-03-20T21:28:56.259Z,10.46
2023-03-20T21:31:30.421Z,10.32
2023-03-20T21:33:57.929Z,10.27
2023-03-20T21:36:24.723Z,10.29
2023-03-20T21:39:07.254Z,10.39
2023-03-20T21:41:36.325Z,10.25
2023-03-20T21:44:03.749Z,10.17
2023-03-20T21:47:09.279Z,10.04
2023-03-20T21:50:19.356Z,10.06
2023-03-20T21:52:48.846Z,9.93
2023-03-20T21:55:34.888Z,9.86
2023-03-20T22:03:22.310Z,9.89
2023-03-20T22:12:14.422Z,9.93
2023-03-20T22:15:11.997Z,9.88
2023-03-20T22:17:56.239Z,9.95
2023-03-20T22:23:21.682Z,10.02
2023-03-20T22:26:11.033Z,10.08
2023-03-20T22:40:08.680Z,9.89
2023-03-20T22:45:02.002Z,10.01
2023-03-20T22:47:30.282Z,10.02
2023-03-20T22:49:56.961Z,10.00
2023-03-20T22:52:34.793Z,10.04
2023-03-20T22:55:09.504Z,10.25
2023-03-20T22:57:45.711Z,10.46
2023-03-20T23:00:20.108Z,10.67
2023-03-20T23:02:47.582Z,10.90
2023-03-20T23:05:14.216Z,11.10
2023-03-20T23:07:40.788Z,11.20
2023-03-20T23:10:09.718Z,11.31
2023-03-20T23:12:40.563Z,11.35
2023-03-20T23:15:08.851Z,11.47
2023-03-20T23:17:35.459Z,11.54
2023-03-20T23:20:11.570Z,11.61
2023-03-20T23:22:39.458Z,11.69
2023-03-20T23:25:16.420Z,11.75
2023-03-20T23:27:47.557Z,11.82
2023-03-20T23:30:14.873Z,11.94
2023-03-20T23:32:41.814Z,12.00
2023-03-20T23:35:09.067Z,12.02
2023-03-20T23:37:36.812Z,12.05
2023-03-20T23:40:04.699Z,12.04
2023-03-20T23:42:31.382Z,12.01
2023-03-20T23:45:04.430Z,12.04
2023-03-20T23:47:45.488Z,12.05
2023-03-20T23:50:20.685Z,12.10
2023-03-20T23:53:03.609Z,12.10
2023-03-20T23:55:36.436Z,12.06
2023-03-20T23:58:03.356Z,12.03
